sensor_id;sensor_type;location;lat;lon;timestamp;P1;durP1;ratioP1;P2;durP2;ratioP2
8058;SDS011;4072;42.668;23.396;2022-12-18T00:01:14;5.77;;;4.80;;
8058;SDS011;4072;42.668;23.396;2022-12-18T00:03:42;6.33;;;4.87;;
8058;SDS011;4072;42.668;23.396;2022-12-18T00:06:11;6.43;;;5.17;;
8058;SDS011;4072;42.668;23.396;2022-12-18T00:08:40;7.67;;;4.93;;
8058;SDS011;4072;42.668;23.396;2022-12-18T00:11:08;7.00;;;5.53;;
8058;SDS011;4072;42.668;23.396;2022-12-18T00:13:38;6.67;;;5.47;;
8058;SDS011;4072;42.668;23.396;2022-12-18T00:16:09;5.90;;;4.60;;
8058;SDS011;4072;42.668;23.396;2022-12-18T00:18:37;5.90;;;4.87;;
8058;SDS011;4072;42.668;23.396;2022-12-18T00:21:07;5.57;;;4.13;;
8058;SDS011;4072;42.668;23.396;2022-12-18T00:23:35;6.20;;;5.27;;
8058;SDS011;4072;42.668;23.396;2022-12-18T00:26:04;6.83;;;5.03;;
8058;SDS011;4072;42.668;23.396;2022-12-18T00:28:32;6.93;;;6.10;;
8058;SDS011;4072;42.668;23.396;2022-12-18T00:31:00;7.77;;;6.10;;
8058;SDS011;4072;42.668;23.396;2022-12-18T00:33:29;6.30;;;5.70;;
8058;SDS011;4072;42.668;23.396;2022-12-18T00:36:00;7.07;;;5.90;;
8058;SDS011;4072;42.668;23.396;2022-12-18T00:38:27;7.13;;;5.27;;
8058;SDS011;4072;42.668;23.396;2022-12-18T00:40:55;8.50;;;6.30;;
8058;SDS011;4072;42.668;23.396;2022-12-18T00:43:23;7.07;;;5.67;;
8058;SDS011;4072;42.668;23.396;2022-12-18T00:45:50;7.13;;;5.90;;
8058;SDS011;4072;42.668;23.396;2022-12-18T00:48:17;6.47;;;5.57;;
8058;SDS011;4072;42.668;23.396;2022-12-18T00:50:46;7.73;;;5.97;;
8058;SDS011;4072;42.668;23.396;2022-12-18T00:53:14;7.40;;;5.10;;
8058;SDS011;4072;42.668;23.396;2022-12-18T00:55:42;5.87;;;4.53;;
8058;SDS011;4072;42.668;23.396;2022-12-18T00:58:11;5.90;;;4.97;;
8058;SDS011;4072;42.668;23.396;2022-12-18T01:00:39;6.10;;;5.27;;
8058;SDS011;4072;42.668;23.396;2022-12-18T01:03:07;5.97;;;5.30;;
8058;SDS011;4072;42.668;23.396;2022-12-18T01:05:38;6.90;;;5.50;;
8058;SDS011;4072;42.668;23.396;2022-12-18T01:08:07;7.20;;;5.30;;
8058;SDS011;4072;42.668;23.396;2022-12-18T01:10:35;8.57;;;5.83;;
8058;SDS011;4072;42.668;23.396;2022-12-18T01:13:03;8.53;;;5.87;;
8058;SDS011;4072;42.668;23.396;2022-12-18T01:15:30;6.10;;;5.50;;
8058;SDS011;4072;42.668;23.396;2022-12-18T01:17:59;6.37;;;5.57;;
8058;SDS011;4072;42.668;23.396;2022-12-18T01:20:27;7.23;;;5.80;;
8058;SDS011;4072;42.668;23.396;2022-12-18T01:22:54;6.97;;;5.67;;
8058;SDS011;4072;42.668;23.396;2022-12-18T01:25:23;6.93;;;5.70;;
8058;SDS011;4072;42.668;23.396;2022-12-18T01:27:51;9.03;;;6.10;;
8058;SDS011;4072;42.668;23.396;2022-12-18T01:30:19;7.47;;;5.73;;
8058;SDS011;4072;42.668;23.396;2022-12-18T01:32:47;7.53;;;5.53;;
8058;SDS011;4072;42.668;23.396;2022-12-18T01:35:14;7.07;;;6.03;;
8058;SDS011;4072;42.668;23.396;2022-12-18T01:37:42;9.00;;;5.60;;
8058;SDS011;4072;42.668;23.396;2022-12-18T01:40:10;10.97;;;6.47;;
8058;SDS011;4072;42.668;23.396;2022-12-18T01:42:39;10.27;;;6.60;;
8058;SDS011;4072;42.668;23.396;2022-12-18T01:45:21;8.73;;;7.00;;
8058;SDS011;4072;42.668;23.396;2022-12-18T01:47:50;9.33;;;6.87;;
8058;SDS011;4072;42.668;23.396;2022-12-18T01:50:19;9.90;;;7.00;;
8058;SDS011;4072;42.668;23.396;2022-12-18T01:52:48;8.10;;;6.67;;
8058;SDS011;4072;42.668;23.396;2022-12-18T01:55:18;7.97;;;6.73;;
8058;SDS011;4072;42.668;23.396;2022-12-18T01:57:48;10.43;;;7.50;;
8058;SDS011;4072;42.668;23.396;2022-12-18T02:00:17;7.33;;;6.23;;
8058;SDS011;4072;42.668;23.396;2022-12-18T02:02:46;10.17;;;6.90;;
8058;SDS011;4072;42.668;23.396;2022-12-18T02:05:15;9.47;;;6.60;;
8058;SDS011;4072;42.668;23.396;2022-12-18T02:07:47;9.43;;;7.30;;
8058;SDS011;4072;42.668;23.396;2022-12-18T02:10:17;6.80;;;5.83;;
8058;SDS011;4072;42.668;23.396;2022-12-18T02:12:50;7.77;;;6.33;;
8058;SDS011;4072;42.668;23.396;2022-12-18T02:15:22;8.43;;;6.90;;
8058;SDS011;4072;42.668;23.396;2022-12-18T02:17:52;8.33;;;6.10;;
8058;SDS011;4072;42.668;23.396;2022-12-18T02:20:23;7.77;;;5.50;;
8058;SDS011;4072;42.668;23.396;2022-12-18T02:22:57;7.40;;;5.20;;
8058;SDS011;4072;42.668;23.396;2022-12-18T02:25:32;6.70;;;5.53;;
8058;SDS011;4072;42.668;23.396;2022-12-18T02:28:05;8.10;;;6.33;;
8058;SDS011;4072;42.668;23.396;2022-12-18T02:30:34;7.13;;;5.70;;
8058;SDS011;4072;42.668;23.396;2022-12-18T02:33:03;7.00;;;5.87;;
8058;SDS011;4072;42.668;23.396;2022-12-18T02:35:32;7.07;;;5.43;;
8058;SDS011;4072;42.668;23.396;2022-12-18T02:38:00;9.10;;;4.90;;
8058;SDS011;4072;42.668;23.396;2022-12-18T02:40:29;6.60;;;5.33;;
8058;SDS011;4072;42.668;23.396;2022-12-18T02:43:01;6.47;;;5.73;;
8058;SDS011;4072;42.668;23.396;2022-12-18T02:45:31;6.20;;;4.90;;
8058;SDS011;4072;42.668;23.396;2022-12-18T02:47:58;7.80;;;5.30;;
8058;SDS011;4072;42.668;23.396;2022-12-18T02:50:26;5.53;;;4.30;;
8058;SDS011;4072;42.668;23.396;2022-12-18T02:53:01;8.17;;;5.87;;
8058;SDS011;4072;42.668;23.396;2022-12-18T02:55:33;8.07;;;5.97;;
8058;SDS011;4072;42.668;23.396;2022-12-18T02:58:09;7.47;;;5.50;;
8058;SDS011;4072;42.668;23.396;2022-12-18T03:00:42;6.90;;;5.70;;
8058;SDS011;4072;42.668;23.396;2022-12-18T03:03:11;8.17;;;6.17;;
8058;SDS011;4072;42.668;23.396;2022-12-18T03:05:43;6.80;;;6.10;;
8058;SDS011;4072;42.668;23.396;2022-12-18T03:08:14;7.60;;;6.23;;
8058;SDS011;4072;42.668;23.396;2022-12-18T03:10:44;8.70;;;6.37;;
8058;SDS011;4072;42.668;23.396;2022-12-18T03:13:13;7.60;;;5.47;;
8058;SDS011;4072;42.668;23.396;2022-12-18T03:15:44;8.70;;;6.90;;
8058;SDS011;4072;42.668;23.396;2022-12-18T03:18:21;8.37;;;6.47;;
8058;SDS011;4072;42.668;23.396;2022-12-18T03:20:49;8.43;;;6.37;;
8058;SDS011;4072;42.668;23.396;2022-12-18T03:23:21;10.07;;;7.03;;
8058;SDS011;4072;42.668;23.396;2022-12-18T03:25:52;6.80;;;5.87;;
8058;SDS011;4072;42.668;23.396;2022-12-18T03:28:22;7.40;;;5.70;;
8058;SDS011;4072;42.668;23.396;2022-12-18T03:30:52;8.50;;;6.93;;
8058;SDS011;4072;42.668;23.396;2022-12-18T03:33:24;7.53;;;5.83;;
8058;SDS011;4072;42.668;23.396;2022-12-18T03:35:53;8.10;;;6.30;;
8058;SDS011;4072;42.668;23.396;2022-12-18T03:38:20;7.43;;;5.73;;
8058;SDS011;4072;42.668;23.396;2022-12-18T03:40:51;7.13;;;5.83;;
8058;SDS011;4072;42.668;23.396;2022-12-18T03:43:26;7.40;;;5.87;;
8058;SDS011;4072;42.668;23.396;2022-12-18T03:45:59;9.33;;;6.37;;
8058;SDS011;4072;42.668;23.396;2022-12-18T03:48:29;9.03;;;7.20;;
8058;SDS011;4072;42.668;23.396;2022-12-18T03:50:59;6.63;;;6.00;;
8058;SDS011;4072;42.668;23.396;2022-12-18T03:53:31;6.80;;;5.87;;
8058;SDS011;4072;42.668;23.396;2022-12-18T03:56:00;10.13;;;6.83;;
8058;SDS011;4072;42.668;23.396;2022-12-18T03:58:29;7.80;;;6.27;;
8058;SDS011;4072;42.668;23.396;2022-12-18T04:01:00;6.50;;;5.23;;
8058;SDS011;4072;42.668;23.396;2022-12-18T04:03:29;7.37;;;5.87;;
8058;SDS011;4072;42.668;23.396;2022-12-18T04:05:59;7.80;;;6.33;;
8058;SDS011;4072;42.668;23.396;2022-12-18T04:08:27;8.57;;;6.03;;
8058;SDS011;4072;42.668;23.396;2022-12-18T04:10:55;10.67;;;6.50;;
8058;SDS011;4072;42.668;23.396;2022-12-18T04:13:23;9.17;;;4.90;;
8058;SDS011;4072;42.668;23.396;2022-12-18T04:15:51;10.10;;;7.03;;
8058;SDS011;4072;42.668;23.396;2022-12-18T04:18:20;10.10;;;6.57;;
8058;SDS011;4072;42.668;23.396;2022-12-18T04:20:48;8.33;;;5.73;;
8058;SDS011;4072;42.668;23.396;2022-12-18T04:23:15;6.77;;;5.97;;
8058;SDS011;4072;42.668;23.396;2022-12-18T04:25:43;8.37;;;6.23;;
8058;SDS011;4072;42.668;23.396;2022-12-18T04:28:11;8.77;;;6.67;;
8058;SDS011;4072;42.668;23.396;2022-12-18T04:30:39;10.07;;;7.70;;
8058;SDS011;4072;42.668;23.396;2022-12-18T04:33:08;10.03;;;7.53;;
8058;SDS011;4072;42.668;23.396;2022-12-18T04:35:37;7.50;;;6.27;;
8058;SDS011;4072;42.668;23.396;2022-12-18T04:38:05;9.07;;;6.57;;
8058;SDS011;4072;42.668;23.396;2022-12-18T04:40:36;9.73;;;6.37;;
8058;SDS011;4072;42.668;23.396;2022-12-18T04:43:04;9.03;;;6.47;;
8058;SDS011;4072;42.668;23.396;2022-12-18T04:45:32;9.50;;;6.83;;
8058;SDS011;4072;42.668;23.396;2022-12-18T04:48:00;9.93;;;7.67;;
8058;SDS011;4072;42.668;23.396;2022-12-18T04:50:28;8.10;;;7.23;;
8058;SDS011;4072;42.668;23.396;2022-12-18T04:52:57;10.67;;;7.10;;
8058;SDS011;4072;42.668;23.396;2022-12-18T04:55:25;10.57;;;7.27;;
8058;SDS011;4072;42.668;23.396;2022-12-18T04:57:53;11.63;;;7.67;;
8058;SDS011;4072;42.668;23.396;2022-12-18T05:00:20;11.17;;;7.97;;
8058;SDS011;4072;42.668;23.396;2022-12-18T05:02:48;12.43;;;7.90;;
8058;SDS011;4072;42.668;23.396;2022-12-18T05:05:16;11.37;;;8.40;;
8058;SDS011;4072;42.668;23.396;2022-12-18T05:07:44;11.53;;;7.67;;
8058;SDS011;4072;42.668;23.396;2022-12-18T05:10:13;11.57;;;7.93;;
8058;SDS011;4072;42.668;23.396;2022-12-18T05:12:41;10.70;;;8.27;;
8058;SDS011;4072;42.668;23.396;2022-12-18T05:15:22;11.17;;;8.63;;
8058;SDS011;4072;42.668;23.396;2022-12-18T05:17:50;10.87;;;8.47;;
8058;SDS011;4072;42.668;23.396;2022-12-18T05:20:18;11.30;;;8.53;;
8058;SDS011;4072;42.668;23.396;2022-12-18T05:22:46;14.43;;;9.37;;
8058;SDS011;4072;42.668;23.396;2022-12-18T05:25:15;11.43;;;8.27;;
8058;SDS011;4072;42.668;23.396;2022-12-18T05:27:43;12.40;;;9.40;;
8058;SDS011;4072;42.668;23.396;2022-12-18T05:30:11;10.90;;;7.97;;
8058;SDS011;4072;42.668;23.396;2022-12-18T05:32:39;13.90;;;9.50;;
8058;SDS011;4072;42.668;23.396;2022-12-18T05:35:07;13.40;;;9.33;;
8058;SDS011;4072;42.668;23.396;2022-12-18T05:37:35;16.27;;;9.90;;
8058;SDS011;4072;42.668;23.396;2022-12-18T05:40:09;13.00;;;9.67;;
8058;SDS011;4072;42.668;23.396;2022-12-18T05:42:38;15.47;;;9.73;;
8058;SDS011;4072;42.668;23.396;2022-12-18T05:45:06;14.53;;;9.67;;
8058;SDS011;4072;42.668;23.396;2022-12-18T05:47:34;11.20;;;8.10;;
8058;SDS011;4072;42.668;23.396;2022-12-18T05:50:01;12.63;;;9.17;;
8058;SDS011;4072;42.668;23.396;2022-12-18T05:52:30;14.33;;;9.40;;
8058;SDS011;4072;42.668;23.396;2022-12-18T05:54:58;12.80;;;9.47;;
8058;SDS011;4072;42.668;23.396;2022-12-18T05:57:26;9.80;;;7.63;;
8058;SDS011;4072;42.668;23.396;2022-12-18T05:59:55;13.57;;;9.83;;
8058;SDS011;4072;42.668;23.396;2022-12-18T06:02:23;14.57;;;9.80;;
8058;SDS011;4072;42.668;23.396;2022-12-18T06:04:51;13.67;;;8.87;;
8058;SDS011;4072;42.668;23.396;2022-12-18T06:07:18;14.87;;;9.37;;
8058;SDS011;4072;42.668;23.396;2022-12-18T06:09:46;12.83;;;9.00;;
8058;SDS011;4072;42.668;23.396;2022-12-18T06:12:13;14.13;;;9.77;;
8058;SDS011;4072;42.668;23.396;2022-12-18T06:14:41;12.87;;;9.40;;
8058;SDS011;4072;42.668;23.396;2022-12-18T06:17:11;13.07;;;9.83;;
8058;SDS011;4072;42.668;23.396;2022-12-18T06:19:39;14.57;;;11.33;;
8058;SDS011;4072;42.668;23.396;2022-12-18T06:22:06;15.50;;;10.90;;
8058;SDS011;4072;42.668;23.396;2022-12-18T06:24:34;12.83;;;9.40;;
8058;SDS011;4072;42.668;23.396;2022-12-18T06:27:02;14.20;;;9.27;;
8058;SDS011;4072;42.668;23.396;2022-12-18T06:29:29;13.33;;;8.87;;
8058;SDS011;4072;42.668;23.396;2022-12-18T06:31:57;14.80;;;10.70;;
8058;SDS011;4072;42.668;23.396;2022-12-18T06:34:26;13.10;;;10.03;;
8058;SDS011;4072;42.668;23.396;2022-12-18T06:36:54;14.10;;;10.30;;
8058;SDS011;4072;42.668;23.396;2022-12-18T06:39:22;12.47;;;8.40;;
8058;SDS011;4072;42.668;23.396;2022-12-18T06:41:49;14.93;;;9.50;;
8058;SDS011;4072;42.668;23.396;2022-12-18T06:44:17;15.80;;;10.47;;
8058;SDS011;4072;42.668;23.396;2022-12-18T06:46:45;13.50;;;9.43;;
8058;SDS011;4072;42.668;23.396;2022-12-18T06:49:13;14.33;;;9.20;;
8058;SDS011;4072;42.668;23.396;2022-12-18T06:51:43;13.20;;;8.07;;
8058;SDS011;4072;42.668;23.396;2022-12-18T06:54:12;12.97;;;9.47;;
8058;SDS011;4072;42.668;23.396;2022-12-18T06:56:40;14.67;;;10.83;;
8058;SDS011;4072;42.668;23.396;2022-12-18T06:59:07;13.67;;;9.93;;
8058;SDS011;4072;42.668;23.396;2022-12-18T07:01:35;15.67;;;9.83;;
8058;SDS011;4072;42.668;23.396;2022-12-18T07:04:03;13.60;;;9.63;;
8058;SDS011;4072;42.668;23.396;2022-12-18T07:06:31;15.83;;;10.07;;
8058;SDS011;4072;42.668;23.396;2022-12-18T07:09:00;12.13;;;9.43;;
8058;SDS011;4072;42.668;23.396;2022-12-18T07:11:28;11.63;;;8.13;;
8058;SDS011;4072;42.668;23.396;2022-12-18T07:13:58;14.30;;;10.10;;
8058;SDS011;4072;42.668;23.396;2022-12-18T07:16:26;14.07;;;9.07;;
8058;SDS011;4072;42.668;23.396;2022-12-18T07:18:55;14.17;;;9.73;;
8058;SDS011;4072;42.668;23.396;2022-12-18T07:21:23;13.80;;;10.03;;
8058;SDS011;4072;42.668;23.396;2022-12-18T07:23:51;14.47;;;9.93;;
8058;SDS011;4072;42.668;23.396;2022-12-18T07:26:20;13.23;;;9.10;;
8058;SDS011;4072;42.668;23.396;2022-12-18T07:28:48;14.20;;;9.77;;
8058;SDS011;4072;42.668;23.396;2022-12-18T07:31:17;15.47;;;10.63;;
8058;SDS011;4072;42.668;23.396;2022-12-18T07:33:47;16.43;;;10.80;;
8058;SDS011;4072;42.668;23.396;2022-12-18T07:36:15;15.17;;;10.93;;
8058;SDS011;4072;42.668;23.396;2022-12-18T07:38:42;16.23;;;12.07;;
8058;SDS011;4072;42.668;23.396;2022-12-18T07:41:11;14.80;;;10.93;;
8058;SDS011;4072;42.668;23.396;2022-12-18T07:43:40;15.33;;;10.60;;
8058;SDS011;4072;42.668;23.396;2022-12-18T07:46:09;15.77;;;10.77;;
8058;SDS011;4072;42.668;23.396;2022-12-18T07:48:38;16.13;;;11.63;;
8058;SDS011;4072;42.668;23.396;2022-12-18T07:51:06;16.80;;;11.00;;
8058;SDS011;4072;42.668;23.396;2022-12-18T07:53:34;16.63;;;11.33;;
8058;SDS011;4072;42.668;23.396;2022-12-18T07:56:04;19.77;;;12.73;;
8058;SDS011;4072;42.668;23.396;2022-12-18T07:58:53;16.40;;;10.80;;
8058;SDS011;4072;42.668;23.396;2022-12-18T08:01:21;13.90;;;11.73;;
8058;SDS011;4072;42.668;23.396;2022-12-18T08:03:49;18.73;;;13.07;;
8058;SDS011;4072;42.668;23.396;2022-12-18T08:06:18;17.20;;;11.93;;
8058;SDS011;4072;42.668;23.396;2022-12-18T08:08:50;20.27;;;12.70;;
8058;SDS011;4072;42.668;23.396;2022-12-18T08:11:17;19.93;;;11.60;;
8058;SDS011;4072;42.668;23.396;2022-12-18T08:13:46;15.53;;;11.27;;
8058;SDS011;4072;42.668;23.396;2022-12-18T08:16:16;17.23;;;11.80;;
8058;SDS011;4072;42.668;23.396;2022-12-18T08:18:45;18.53;;;12.93;;
8058;SDS011;4072;42.668;23.396;2022-12-18T08:21:15;20.87;;;13.30;;
8058;SDS011;4072;42.668;23.396;2022-12-18T08:23:43;20.77;;;14.77;;
8058;SDS011;4072;42.668;23.396;2022-12-18T08:26:11;19.57;;;13.43;;
8058;SDS011;4072;42.668;23.396;2022-12-18T08:28:39;20.10;;;13.40;;
8058;SDS011;4072;42.668;23.396;2022-12-18T08:31:07;17.30;;;11.83;;
8058;SDS011;4072;42.668;23.396;2022-12-18T08:33:38;19.20;;;13.13;;
8058;SDS011;4072;42.668;23.396;2022-12-18T08:36:08;19.90;;;13.43;;
8058;SDS011;4072;42.668;23.396;2022-12-18T08:38:36;19.27;;;13.37;;
8058;SDS011;4072;42.668;23.396;2022-12-18T08:41:04;18.30;;;13.47;;
8058;SDS011;4072;42.668;23.396;2022-12-18T08:43:32;18.33;;;12.43;;
8058;SDS011;4072;42.668;23.396;2022-12-18T08:46:18;22.53;;;14.40;;
8058;SDS011;4072;42.668;23.396;2022-12-18T08:48:47;22.43;;;14.80;;
8058;SDS011;4072;42.668;23.396;2022-12-18T08:51:15;16.77;;;11.60;;
8058;SDS011;4072;42.668;23.396;2022-12-18T08:53:43;16.43;;;11.70;;
8058;SDS011;4072;42.668;23.396;2022-12-18T08:56:12;20.57;;;13.27;;
8058;SDS011;4072;42.668;23.396;2022-12-18T08:58:40;18.50;;;12.80;;
8058;SDS011;4072;42.668;23.396;2022-12-18T09:01:08;20.37;;;13.83;;
8058;SDS011;4072;42.668;23.396;2022-12-18T09:03:36;18.37;;;13.10;;
8058;SDS011;4072;42.668;23.396;2022-12-18T09:06:06;17.93;;;13.53;;
8058;SDS011;4072;42.668;23.396;2022-12-18T09:08:35;17.00;;;10.93;;
8058;SDS011;4072;42.668;23.396;2022-12-18T09:11:03;14.03;;;9.90;;
8058;SDS011;4072;42.668;23.396;2022-12-18T09:13:31;20.77;;;12.83;;
8058;SDS011;4072;42.668;23.396;2022-12-18T09:15:59;19.07;;;11.97;;
8058;SDS011;4072;42.668;23.396;2022-12-18T09:18:26;16.10;;;10.33;;
8058;SDS011;4072;42.668;23.396;2022-12-18T09:20:54;15.63;;;10.53;;
8058;SDS011;4072;42.668;23.396;2022-12-18T09:23:23;15.23;;;11.13;;
8058;SDS011;4072;42.668;23.396;2022-12-18T09:25:51;16.97;;;11.73;;
8058;SDS011;4072;42.668;23.396;2022-12-18T09:28:18;14.77;;;10.80;;
8058;SDS011;4072;42.668;23.396;2022-12-18T09:30:47;17.83;;;12.10;;
8058;SDS011;4072;42.668;23.396;2022-12-18T09:33:15;16.07;;;10.17;;
8058;SDS011;4072;42.668;23.396;2022-12-18T09:35:43;14.83;;;11.13;;
8058;SDS011;4072;42.668;23.396;2022-12-18T09:38:12;14.93;;;10.57;;
8058;SDS011;4072;42.668;23.396;2022-12-18T09:40:43;17.77;;;12.13;;
8058;SDS011;4072;42.668;23.396;2022-12-18T09:43:13;16.23;;;10.17;;
8058;SDS011;4072;42.668;23.396;2022-12-18T09:45:43;16.20;;;9.53;;
8058;SDS011;4072;42.668;23.396;2022-12-18T09:48:14;16.70;;;11.43;;
8058;SDS011;4072;42.668;23.396;2022-12-18T09:50:43;16.13;;;11.43;;
8058;SDS011;4072;42.668;23.396;2022-12-18T09:53:12;16.23;;;11.47;;
8058;SDS011;4072;42.668;23.396;2022-12-18T09:55:42;17.57;;;11.60;;
8058;SDS011;4072;42.668;23.396;2022-12-18T09:58:14;15.30;;;11.40;;
8058;SDS011;4072;42.668;23.396;2022-12-18T10:00:43;15.63;;;9.80;;
8058;SDS011;4072;42.668;23.396;2022-12-18T10:03:11;16.07;;;10.33;;
8058;SDS011;4072;42.668;23.396;2022-12-18T10:05:42;18.20;;;10.37;;
8058;SDS011;4072;42.668;23.396;2022-12-18T10:08:12;14.27;;;9.77;;
8058;SDS011;4072;42.668;23.396;2022-12-18T10:10:45;16.00;;;10.27;;
8058;SDS011;4072;42.668;23.396;2022-12-18T10:13:19;17.67;;;10.13;;
8058;SDS011;4072;42.668;23.396;2022-12-18T10:18:38;16.67;;;10.47;;
8058;SDS011;4072;42.668;23.396;2022-12-18T10:21:09;13.43;;;9.37;;
8058;SDS011;4072;42.668;23.396;2022-12-18T10:23:39;15.90;;;10.20;;
8058;SDS011;4072;42.668;23.396;2022-12-18T10:26:15;14.40;;;9.53;;
8058;SDS011;4072;42.668;23.396;2022-12-18T10:28:43;14.37;;;9.93;;
8058;SDS011;4072;42.668;23.396;2022-12-18T10:31:12;16.10;;;10.80;;
8058;SDS011;4072;42.668;23.396;2022-12-18T10:33:42;12.00;;;8.33;;
8058;SDS011;4072;42.668;23.396;2022-12-18T10:36:10;16.27;;;10.40;;
8058;SDS011;4072;42.668;23.396;2022-12-18T10:38:37;16.00;;;9.73;;
8058;SDS011;4072;42.668;23.396;2022-12-18T10:41:07;15.07;;;10.67;;
8058;SDS011;4072;42.668;23.396;2022-12-18T10:46:36;15.47;;;11.43;;
8058;SDS011;4072;42.668;23.396;2022-12-18T10:49:04;18.00;;;11.70;;
8058;SDS011;4072;42.668;23.396;2022-12-18T10:51:33;18.50;;;12.20;;
8058;SDS011;4072;42.668;23.396;2022-12-18T10:54:02;20.07;;;12.47;;
8058;SDS011;4072;42.668;23.396;2022-12-18T10:56:33;17.87;;;12.00;;
8058;SDS011;4072;42.668;23.396;2022-12-18T10:59:03;14.80;;;11.00;;
8058;SDS011;4072;42.668;23.396;2022-12-18T11:01:44;17.70;;;12.10;;
8058;SDS011;4072;42.668;23.396;2022-12-18T11:04:15;15.23;;;11.43;;
8058;SDS011;4072;42.668;23.396;2022-12-18T11:06:52;18.10;;;12.20;;
8058;SDS011;4072;42.668;23.396;2022-12-18T11:09:20;19.97;;;12.50;;
8058;SDS011;4072;42.668;23.396;2022-12-18T11:11:48;14.47;;;10.57;;
8058;SDS011;4072;42.668;23.396;2022-12-18T11:14:20;16.40;;;10.60;;
8058;SDS011;4072;42.668;23.396;2022-12-18T11:16:51;22.53;;;11.93;;
8058;SDS011;4072;42.668;23.396;2022-12-18T11:19:39;15.40;;;10.83;;
8058;SDS011;4072;42.668;23.396;2022-12-18T11:22:17;20.70;;;12.60;;
8058;SDS011;4072;42.668;23.396;2022-12-18T11:24:51;15.17;;;10.27;;
8058;SDS011;4072;42.668;23.396;2022-12-18T11:27:39;18.10;;;11.90;;
8058;SDS011;4072;42.668;23.396;2022-12-18T11:30:07;19.57;;;14.20;;
8058;SDS011;4072;42.668;23.396;2022-12-18T11:32:37;20.80;;;14.37;;
8058;SDS011;4072;42.668;23.396;2022-12-18T11:35:11;19.20;;;13.10;;
8058;SDS011;4072;42.668;23.396;2022-12-18T11:37:41;19.40;;;11.40;;
8058;SDS011;4072;42.668;23.396;2022-12-18T11:40:11;20.60;;;12.33;;
8058;SDS011;4072;42.668;23.396;2022-12-18T11:42:41;20.30;;;12.27;;
8058;SDS011;4072;42.668;23.396;2022-12-18T11:45:25;15.80;;;11.40;;
8058;SDS011;4072;42.668;23.396;2022-12-18T11:47:56;16.33;;;12.63;;
8058;SDS011;4072;42.668;23.396;2022-12-18T11:50:26;19.23;;;12.53;;
8058;SDS011;4072;42.668;23.396;2022-12-18T11:52:55;20.97;;;14.07;;
8058;SDS011;4072;42.668;23.396;2022-12-18T11:55:32;16.60;;;12.07;;
8058;SDS011;4072;42.668;23.396;2022-12-18T11:58:07;19.97;;;12.77;;
8058;SDS011;4072;42.668;23.396;2022-12-18T12:00:41;16.43;;;11.93;;
8058;SDS011;4072;42.668;23.396;2022-12-18T12:03:21;16.57;;;11.90;;
8058;SDS011;4072;42.668;23.396;2022-12-18T12:05:56;18.73;;;12.47;;
8058;SDS011;4072;42.668;23.396;2022-12-18T12:08:27;19.07;;;12.03;;
8058;SDS011;4072;42.668;23.396;2022-12-18T12:11:02;18.27;;;10.73;;
8058;SDS011;4072;42.668;23.396;2022-12-18T12:13:37;15.77;;;11.23;;
8058;SDS011;4072;42.668;23.396;2022-12-18T12:16:10;18.23;;;13.37;;
8058;SDS011;4072;42.668;23.396;2022-12-18T12:18:47;17.27;;;12.17;;
8058;SDS011;4072;42.668;23.396;2022-12-18T12:21:20;17.83;;;11.00;;
8058;SDS011;4072;42.668;23.396;2022-12-18T12:23:53;17.80;;;11.87;;
8058;SDS011;4072;42.668;23.396;2022-12-18T12:26:23;18.60;;;11.33;;
8058;SDS011;4072;42.668;23.396;2022-12-18T12:28:59;15.93;;;10.93;;
8058;SDS011;4072;42.668;23.396;2022-12-18T12:31:32;17.60;;;12.27;;
8058;SDS011;4072;42.668;23.396;2022-12-18T12:34:06;20.33;;;13.23;;
8058;SDS011;4072;42.668;23.396;2022-12-18T12:36:38;17.43;;;12.00;;
8058;SDS011;4072;42.668;23.396;2022-12-18T12:39:10;18.07;;;11.77;;
8058;SDS011;4072;42.668;23.396;2022-12-18T12:41:40;20.27;;;13.27;;
8058;SDS011;4072;42.668;23.396;2022-12-18T12:44:24;18.47;;;11.93;;
8058;SDS011;4072;42.668;23.396;2022-12-18T12:46:55;18.17;;;12.13;;
8058;SDS011;4072;42.668;23.396;2022-12-18T12:49:27;17.43;;;11.67;;
8058;SDS011;4072;42.668;23.396;2022-12-18T12:51:57;17.20;;;12.17;;
8058;SDS011;4072;42.668;23.396;2022-12-18T12:54:26;17.87;;;11.40;;
8058;SDS011;4072;42.668;23.396;2022-12-18T12:56:57;15.23;;;11.00;;
8058;SDS011;4072;42.668;23.396;2022-12-18T12:59:28;21.67;;;12.93;;
8058;SDS011;4072;42.668;23.396;2022-12-18T13:01:59;18.00;;;13.77;;
8058;SDS011;4072;42.668;23.396;2022-12-18T13:04:33;22.67;;;16.53;;
8058;SDS011;4072;42.668;23.396;2022-12-18T13:07:04;31.47;;;17.60;;
8058;SDS011;4072;42.668;23.396;2022-12-18T13:09:34;18.17;;;12.60;;
8058;SDS011;4072;42.668;23.396;2022-12-18T13:12:17;21.53;;;13.37;;
8058;SDS011;4072;42.668;23.396;2022-12-18T13:15:11;18.10;;;12.17;;
8058;SDS011;4072;42.668;23.396;2022-12-18T13:17:40;18.43;;;11.73;;
8058;SDS011;4072;42.668;23.396;2022-12-18T13:20:12;20.90;;;12.63;;
8058;SDS011;4072;42.668;23.396;2022-12-18T13:22:44;19.50;;;11.63;;
8058;SDS011;4072;42.668;23.396;2022-12-18T13:28:08;18.13;;;12.13;;
8058;SDS011;4072;42.668;23.396;2022-12-18T13:30:42;18.80;;;10.70;;
8058;SDS011;4072;42.668;23.396;2022-12-18T13:36:01;17.83;;;12.37;;
8058;SDS011;4072;42.668;23.396;2022-12-18T13:38:33;17.87;;;11.93;;
8058;SDS011;4072;42.668;23.396;2022-12-18T13:41:02;19.53;;;11.93;;
8058;SDS011;4072;42.668;23.396;2022-12-18T13:43:34;18.60;;;12.13;;
8058;SDS011;4072;42.668;23.396;2022-12-18T13:46:05;14.40;;;11.00;;
8058;SDS011;4072;42.668;23.396;2022-12-18T13:48:36;19.60;;;12.37;;
8058;SDS011;4072;42.668;23.396;2022-12-18T13:51:06;19.70;;;12.53;;
8058;SDS011;4072;42.668;23.396;2022-12-18T13:53:36;19.20;;;13.37;;
8058;SDS011;4072;42.668;23.396;2022-12-18T13:56:06;18.37;;;12.33;;
8058;SDS011;4072;42.668;23.396;2022-12-18T13:58:34;18.17;;;12.37;;
8058;SDS011;4072;42.668;23.396;2022-12-18T14:01:01;21.87;;;13.70;;
8058;SDS011;4072;42.668;23.396;2022-12-18T14:03:31;20.57;;;13.80;;
8058;SDS011;4072;42.668;23.396;2022-12-18T14:06:00;16.47;;;11.93;;
8058;SDS011;4072;42.668;23.396;2022-12-18T14:08:32;20.97;;;13.90;;
8058;SDS011;4072;42.668;23.396;2022-12-18T14:11:00;25.53;;;15.90;;
8058;SDS011;4072;42.668;23.396;2022-12-18T14:13:30;21.07;;;13.90;;
8058;SDS011;4072;42.668;23.396;2022-12-18T14:15:58;20.43;;;14.67;;
8058;SDS011;4072;42.668;23.396;2022-12-18T14:18:32;16.27;;;12.13;;
8058;SDS011;4072;42.668;23.396;2022-12-18T14:21:02;17.73;;;12.43;;
8058;SDS011;4072;42.668;23.396;2022-12-18T14:23:32;20.47;;;12.93;;
8058;SDS011;4072;42.668;23.396;2022-12-18T14:26:01;19.33;;;13.37;;
8058;SDS011;4072;42.668;23.396;2022-12-18T14:28:31;16.90;;;11.73;;
8058;SDS011;4072;42.668;23.396;2022-12-18T14:30:59;17.17;;;11.77;;
8058;SDS011;4072;42.668;23.396;2022-12-18T14:33:27;18.57;;;12.00;;
8058;SDS011;4072;42.668;23.396;2022-12-18T14:35:56;15.93;;;10.97;;
8058;SDS011;4072;42.668;23.396;2022-12-18T14:38:26;15.07;;;11.03;;
8058;SDS011;4072;42.668;23.396;2022-12-18T14:40:56;14.87;;;11.03;;
8058;SDS011;4072;42.668;23.396;2022-12-18T14:43:24;18.97;;;11.63;;
8058;SDS011;4072;42.668;23.396;2022-12-18T14:45:52;15.33;;;10.17;;
8058;SDS011;4072;42.668;23.396;2022-12-18T14:48:21;17.30;;;10.47;;
8058;SDS011;4072;42.668;23.396;2022-12-18T14:50:56;14.70;;;11.00;;
8058;SDS011;4072;42.668;23.396;2022-12-18T14:53:28;17.37;;;10.90;;
8058;SDS011;4072;42.668;23.396;2022-12-18T14:56:00;17.10;;;10.93;;
8058;SDS011;4072;42.668;23.396;2022-12-18T14:58:28;18.37;;;10.50;;
8058;SDS011;4072;42.668;23.396;2022-12-18T15:00:56;15.80;;;10.80;;
8058;SDS011;4072;42.668;23.396;2022-12-18T15:03:24;16.40;;;10.07;;
8058;SDS011;4072;42.668;23.396;2022-12-18T15:05:52;16.73;;;10.33;;
8058;SDS011;4072;42.668;23.396;2022-12-18T15:08:30;18.43;;;11.40;;
8058;SDS011;4072;42.668;23.396;2022-12-18T15:11:01;12.97;;;10.00;;
8058;SDS011;4072;42.668;23.396;2022-12-18T15:13:32;15.33;;;10.53;;